Charlton City, MA (01508)

8:08 AM EDT on September 02, 2014 (GMT -0400)
KMASPENC6 | Change Station
CLOSE
Current Station
Personal Weather Station
Location: Spencer, MA
Elevation: 995 ft
Nearby Weather Stations

Elev 995 ft 42.23 °N, 71.98 °W | Updated 51 seconds ago

Partly Cloudy
Partly Cloudy
74.8 °F
Feels Like 74 °F
N
0.0
Wind Variable Wind from North
Gusts 0.0 mph

Today
High -- | Low -- °F
--% Chance of Precip.
Yesterday
High -- | Low -- °F
Precip. -- in
6:14 AM 7:20 PM
Waxing Crescent, 51% visible
Pressure 29.93 in
Visibility 7.0 miles
Clouds Clear
Heat Index 74 °F
Dew Point 71 °F
Humidity 89%
Rainfall 0.00 in
Snow Depth Not available.
UV 1 out of 12
Pollen 8.20 out of 12
PM2.5 Good
Flu Activity Not available.
METAR KORH 021154Z 25006KT 7SM CLR 23/21 A2995 RMK AO2 SLP135 T02280211 10228 20200 53008

More Conditions Fewer Conditions

Pressure 29.93 in
Visibility 7.0 miles
Clouds Clear
Heat Index 74 °F
Dew Point 71 °F
Humidity 89%
Rainfall 0.00 in
Snow Depth Not available.
UV 1 out of 12
Pollen 8.20 out of 12
PM2.5 Good
Flu Activity Not available.
METAR KORH 021154Z 25006KT 7SM CLR 23/21 A2995 RMK AO2 SLP135 T02280211 10228 20200 53008

More Conditions Fewer Conditions

10-Day Weather Forecast

Almanac

Astronomy

Sep. 02, 2014 Rise Set
Actual Time 6:14 AM EDT 7:20 PM EDT
Civil Twilight 5:45 AM EDT 7:48 PM EDT
Nautical Twilight 5:11 AM EDT 8:22 PM EDT
Astronomical Twilight 4:35 AM EDT 8:58 PM EDT
Moon 2:03 PM EDT No Moon Set
Length of Visible Light 14h 03m
Length of Day
13h 05m
Tomorrow will be 2m 44s shorter.
Waxing Crescent, 51% of the Moon is Illuminated
Today
Waxing Crescent
Sep 8
Full
Sep 15
Last Quarter
Sep 24
New
Oct 1
First Quarter

Today's Extremes

State Highs State Lows

Community

WunderPhotos

Upload Photos

1,749,622 photos uploaded!

WunderBlogs® & News

By Dr. Jeff Masters
Director of Meteorology, Weather Underground
By Kari Strenfel
Meteorologist, Weather Underground
By Christopher C. Burt
Weather Historian, Weather Underground
September 2, 2014
September 2, 2014
September 2, 2014

Nearby

Air Quality

  Air Quality AQ Index Pollutant
Yesterday Good
OZONE
Yesterday Good
PM2.5
Current Good
PM2.5
Tuesday Moderate
PM2.5
Tuesday Good
OZONE

Snow Depth

Station Depth Elevation
No new snow has been reported.

Earthquake Activity

City Distance Mag. Time & Date
No recent earthquake activity has been reported nearby.
Minimum magnitude displayed is 2.5.

Coastal Water Temperatures

Place Temperature
No Stations Reporting

Nearby Weather Stations